createdAt,value
2017-08-19T00:00:10.882Z,19.93
2017-08-19T00:02:38.274Z,19.88
2017-08-19T00:05:05.663Z,19.89
2017-08-19T00:07:33.063Z,19.91
2017-08-19T00:10:00.447Z,19.88
2017-08-19T00:12:27.849Z,19.95
2017-08-19T00:14:55.236Z,19.96
2017-08-19T00:17:22.655Z,19.90
2017-08-19T00:19:50.039Z,19.95
2017-08-19T00:22:17.422Z,19.92
2017-08-19T00:24:44.830Z,19.80
2017-08-19T00:27:12.211Z,19.75
2017-08-19T00:29:39.607Z,19.80
2017-08-19T00:32:06.995Z,19.79
2017-08-19T00:34:34.396Z,19.78
2017-08-19T00:37:01.779Z,19.73
2017-08-19T00:39:29.192Z,19.64
2017-08-19T00:41:56.583Z,19.50
2017-08-19T00:44:23.977Z,19.57
2017-08-19T00:46:51.360Z,19.60
2017-08-19T00:49:18.754Z,19.58
2017-08-19T00:51:46.138Z,19.50
2017-08-19T00:54:13.522Z,19.46
2017-08-19T00:56:40.919Z,19.47
2017-08-19T00:59:08.320Z,19.54
2017-08-19T01:01:35.718Z,19.52
2017-08-19T01:04:03.115Z,19.44
2017-08-19T01:06:30.498Z,19.49
2017-08-19T01:08:57.903Z,19.41
2017-08-19T01:11:25.306Z,19.16
2017-08-19T01:13:52.706Z,19.12
2017-08-19T01:16:20.090Z,19.06
2017-08-19T01:18:47.482Z,19.09
2017-08-19T01:21:14.870Z,18.88
2017-08-19T01:23:42.258Z,18.88
2017-08-19T01:26:21.434Z,18.98
2017-08-19T01:28:48.834Z,18.91
2017-08-19T01:31:16.223Z,18.91
2017-08-19T01:33:43.611Z,19.03
2017-08-19T01:36:11.003Z,18.95
2017-08-19T01:38:38.393Z,18.87
2017-08-19T01:41:05.787Z,18.86
2017-08-19T01:43:33.199Z,18.88
2017-08-19T01:46:00.598Z,18.89
2017-08-19T01:48:27.987Z,18.78
2017-08-19T01:50:55.384Z,18.75
2017-08-19T01:53:22.772Z,18.78
2017-08-19T01:55:50.168Z,18.78
2017-08-19T01:58:17.555Z,18.79
2017-08-19T02:00:44.962Z,18.86
2017-08-19T02:03:12.354Z,18.73
2017-08-19T02:05:39.753Z,18.74
2017-08-19T02:08:07.146Z,18.46
2017-08-19T02:10:34.534Z,18.34
2017-08-19T02:13:01.930Z,18.47
2017-08-19T02:15:29.324Z,18.50
2017-08-19T02:17:56.765Z,18.33
2017-08-19T02:20:24.152Z,18.40
2017-08-19T02:22:51.547Z,18.34
2017-08-19T02:25:18.942Z,18.35
2017-08-19T02:27:46.327Z,18.28
2017-08-19T02:30:13.710Z,18.47
2017-08-19T02:32:41.106Z,18.42
2017-08-19T02:35:08.494Z,18.37
2017-08-19T02:37:35.892Z,18.24
2017-08-19T02:40:03.277Z,18.24
2017-08-19T02:42:30.674Z,18.30
2017-08-19T02:44:58.059Z,18.21
2017-08-19T02:47:25.450Z,18.18
2017-08-19T02:49:52.840Z,18.17
2017-08-19T02:52:20.247Z,18.13
2017-08-19T02:54:47.635Z,17.98
2017-08-19T02:57:15.020Z,18.02
2017-08-19T02:59:42.422Z,17.84
2017-08-19T03:02:09.825Z,17.82
2017-08-19T03:04:37.215Z,17.93
2017-08-19T03:07:04.606Z,17.89
2017-08-19T03:09:31.995Z,17.89
2017-08-19T03:11:59.383Z,17.86
2017-08-19T03:14:26.784Z,17.72
2017-08-19T03:16:54.168Z,17.80
2017-08-19T03:19:21.570Z,17.92
2017-08-19T03:21:48.958Z,17.91
2017-08-19T03:24:16.359Z,17.75
2017-08-19T03:26:43.974Z,17.81
2017-08-19T03:29:11.375Z,17.77
2017-08-19T03:31:38.763Z,17.90
2017-08-19T03:34:06.157Z,17.81
2017-08-19T03:36:33.556Z,17.91
2017-08-19T03:39:00.946Z,17.72
2017-08-19T03:41:28.343Z,17.77
2017-08-19T03:43:55.759Z,17.85
2017-08-19T03:46:23.152Z,17.92
2017-08-19T03:48:50.538Z,17.92
2017-08-19T03:51:17.939Z,17.89
2017-08-19T03:53:45.326Z,17.90
2017-08-19T03:56:12.719Z,18.03
2017-08-19T03:58:40.116Z,18.02
2017-08-19T04:01:07.530Z,17.95
2017-08-19T04:03:34.928Z,17.89
2017-08-19T04:06:02.327Z,17.81
2017-08-19T04:08:29.719Z,17.91
2017-08-19T04:10:57.118Z,17.89
2017-08-19T04:13:24.510Z,17.93
2017-08-19T04:15:51.911Z,17.86
2017-08-19T04:18:19.315Z,17.71
2017-08-19T04:20:46.715Z,17.70
2017-08-19T04:23:14.107Z,17.64
2017-08-19T04:25:41.507Z,17.61
2017-08-19T04:28:08.914Z,17.50
2017-08-19T04:30:36.313Z,17.46
2017-08-19T04:33:03.719Z,17.49
2017-08-19T04:35:31.123Z,17.23
2017-08-19T04:37:58.531Z,17.39
2017-08-19T04:40:25.923Z,17.25
2017-08-19T04:42:53.339Z,17.42
2017-08-19T04:45:20.732Z,17.16
2017-08-19T04:47:48.127Z,17.12
2017-08-19T04:50:15.518Z,17.11
2017-08-19T04:52:42.975Z,17.07
2017-08-19T04:55:10.351Z,17.08
2017-08-19T04:57:37.758Z,17.06
2017-08-19T05:00:05.150Z,17.05
2017-08-19T05:02:32.551Z,17.06
2017-08-19T05:04:59.956Z,17.16
2017-08-19T05:07:27.354Z,17.25
2017-08-19T05:09:54.747Z,17.28
2017-08-19T05:12:22.139Z,17.34
2017-08-19T05:14:49.526Z,17.38
2017-08-19T05:17:16.939Z,17.39
2017-08-19T05:19:44.335Z,17.36
2017-08-19T05:22:11.734Z,17.36
2017-08-19T05:24:39.126Z,17.25
2017-08-19T05:27:06.515Z,17.18
2017-08-19T05:29:33.921Z,16.96
2017-08-19T05:32:01.335Z,17.02
2017-08-19T05:34:28.735Z,17.04
2017-08-19T05:36:56.150Z,16.93
2017-08-19T05:39:23.742Z,16.94
2017-08-19T05:41:51.133Z,16.80
2017-08-19T05:44:18.742Z,16.58
2017-08-19T05:46:46.142Z,16.54
2017-08-19T05:49:13.555Z,16.61
2017-08-19T05:51:40.948Z,16.67
2017-08-19T05:54:08.359Z,16.46
2017-08-19T05:56:35.763Z,16.47
2017-08-19T05:59:03.172Z,16.59
2017-08-19T06:01:30.803Z,16.49
2017-08-19T06:03:58.195Z,16.54
2017-08-19T06:06:25.593Z,16.58
2017-08-19T06:08:52.988Z,16.65
2017-08-19T06:11:20.384Z,16.54
2017-08-19T06:13:47.793Z,16.62
2017-08-19T06:16:15.183Z,16.76
2017-08-19T06:18:42.605Z,16.68
2017-08-19T06:21:09.982Z,16.80
2017-08-19T06:23:37.402Z,16.74
2017-08-19T06:26:04.794Z,16.78
2017-08-19T06:28:32.182Z,16.83
2017-08-19T06:30:59.587Z,16.96
2017-08-19T06:33:27.226Z,17.11
2017-08-19T06:35:54.622Z,17.03
2017-08-19T06:38:22.027Z,17.00
2017-08-19T06:40:49.414Z,16.91
2017-08-19T06:43:16.807Z,17.09
2017-08-19T06:45:44.216Z,17.02
2017-08-19T06:48:11.627Z,17.07
2017-08-19T06:50:39.025Z,17.13
2017-08-19T06:53:06.428Z,17.02
2017-08-19T06:55:33.835Z,17.07
2017-08-19T06:58:01.231Z,17.04
2017-08-19T07:00:28.667Z,17.12
2017-08-19T07:02:56.063Z,17.14
2017-08-19T07:05:23.468Z,17.31
2017-08-19T07:07:50.866Z,17.25
2017-08-19T07:10:18.260Z,17.12
2017-08-19T07:12:45.674Z,17.26
2017-08-19T07:15:13.082Z,17.23
2017-08-19T07:17:40.479Z,17.24
2017-08-19T07:20:07.871Z,17.28
2017-08-19T07:22:35.280Z,17.38
2017-08-19T07:25:02.678Z,17.32
2017-08-19T07:27:30.079Z,17.43
2017-08-19T07:29:57.471Z,17.47
2017-08-19T07:32:24.870Z,17.41
2017-08-19T07:34:52.283Z,17.46
2017-08-19T07:37:19.684Z,17.55
2017-08-19T07:39:47.079Z,17.56
2017-08-19T07:42:14.485Z,17.53
2017-08-19T07:44:41.879Z,17.55
2017-08-19T07:47:09.274Z,17.56
2017-08-19T07:49:36.666Z,17.57
2017-08-19T07:52:04.072Z,17.62
2017-08-19T07:54:31.470Z,17.68
2017-08-19T07:56:58.879Z,17.68
2017-08-19T07:59:26.272Z,17.70
2017-08-19T08:01:53.662Z,17.80
2017-08-19T08:04:21.071Z,18.05
2017-08-19T08:06:48.463Z,18.10
2017-08-19T08:09:15.855Z,18.20
2017-08-19T08:11:43.250Z,17.99
2017-08-19T08:14:10.698Z,18.09
2017-08-19T08:16:38.094Z,18.22
2017-08-19T08:19:05.494Z,18.24
2017-08-19T08:21:32.886Z,18.32
2017-08-19T08:24:00.308Z,18.48
2017-08-19T08:26:27.694Z,18.43
2017-08-19T08:28:55.094Z,18.35
2017-08-19T08:31:22.506Z,18.30
2017-08-19T08:33:49.894Z,18.47
2017-08-19T08:36:17.286Z,18.63
2017-08-19T08:38:44.703Z,18.69
2017-08-19T08:41:12.098Z,18.71
2017-08-19T08:43:39.504Z,18.58
2017-08-19T08:46:06.906Z,18.67
2017-08-19T08:48:34.329Z,18.83
2017-08-19T08:51:02.259Z,18.79
2017-08-19T08:53:29.654Z,18.83
2017-08-19T08:55:57.064Z,18.71
2017-08-19T08:58:24.447Z,18.71
2017-08-19T09:00:51.866Z,18.77
2017-08-19T09:03:19.263Z,18.68
2017-08-19T09:05:46.676Z,18.72
2017-08-19T09:08:14.075Z,18.79
2017-08-19T09:10:41.488Z,18.90
2017-08-19T09:13:08.872Z,18.87
2017-08-19T09:15:36.275Z,18.93
2017-08-19T09:18:03.685Z,19.08
2017-08-19T09:20:31.315Z,19.26
2017-08-19T09:22:58.702Z,19.38
2017-08-19T09:25:26.122Z,19.11
2017-08-19T09:27:53.527Z,18.85
2017-08-19T09:30:20.943Z,18.76
2017-08-19T09:32:48.339Z,18.78
2017-08-19T09:35:15.742Z,18.84
2017-08-19T09:37:43.235Z,18.89
2017-08-19T09:40:10.621Z,18.79
2017-08-19T09:42:38.004Z,18.74
2017-08-19T09:45:05.399Z,18.90
2017-08-19T09:47:32.807Z,18.93
2017-08-19T09:50:00.200Z,18.95
2017-08-19T09:52:27.603Z,18.98
2017-08-19T09:54:55.008Z,19.05
2017-08-19T09:57:23.195Z,19.01
2017-08-19T09:59:50.622Z,18.96
2017-08-19T10:02:18.003Z,19.04
2017-08-19T10:04:45.390Z,19.25
2017-08-19T10:07:12.795Z,19.40
2017-08-19T10:09:54.931Z,19.41
2017-08-19T10:12:22.330Z,19.59
2017-08-19T10:14:49.724Z,19.56
2017-08-19T10:17:17.127Z,19.63
2017-08-19T10:19:44.514Z,19.72
2017-08-19T10:22:11.919Z,19.82
2017-08-19T10:24:39.313Z,19.83
2017-08-19T10:27:06.719Z,19.80
2017-08-19T10:29:34.111Z,19.74
2017-08-19T10:32:01.540Z,19.70
2017-08-19T10:34:28.927Z,19.59
2017-08-19T10:36:56.330Z,19.61
2017-08-19T10:39:23.726Z,19.62
2017-08-19T10:41:51.139Z,19.64
2017-08-19T10:44:18.538Z,19.64
2017-08-19T10:46:45.921Z,19.75
2017-08-19T10:49:13.331Z,19.84
2017-08-19T10:51:40.722Z,19.92
2017-08-19T10:54:08.134Z,19.87
2017-08-19T10:56:35.537Z,19.88
2017-08-19T10:59:02.941Z,20.02
2017-08-19T11:01:30.347Z,20.05
2017-08-19T11:03:57.771Z,19.99
2017-08-19T11:06:25.154Z,19.86
2017-08-19T11:08:52.548Z,19.77
2017-08-19T11:11:19.948Z,19.76
2017-08-19T11:13:47.358Z,19.78
2017-08-19T11:16:14.743Z,19.78
2017-08-19T11:18:42.225Z,19.71
2017-08-19T11:21:09.600Z,19.74
2017-08-19T11:23:37.003Z,19.86
2017-08-19T11:26:04.392Z,19.94
2017-08-19T11:28:31.823Z,20.06
2017-08-19T11:30:59.207Z,20.00
2017-08-19T11:33:26.598Z,19.98
2017-08-19T11:35:54.006Z,20.11
2017-08-19T11:38:21.406Z,20.08
2017-08-19T11:40:48.811Z,19.93
2017-08-19T11:43:16.498Z,20.04
2017-08-19T11:45:43.909Z,20.15
2017-08-19T11:48:11.330Z,20.16
2017-08-19T11:50:38.723Z,20.16
2017-08-19T11:53:06.107Z,20.32
2017-08-19T11:55:33.498Z,20.45
2017-08-19T11:58:00.913Z,20.37
2017-08-19T12:00:28.333Z,20.21
2017-08-19T12:02:55.724Z,20.30
2017-08-19T12:05:23.136Z,20.24
2017-08-19T12:07:50.526Z,20.24
2017-08-19T12:10:17.970Z,20.15
2017-08-19T12:12:45.359Z,20.45
2017-08-19T12:15:12.815Z,20.43
2017-08-19T12:17:40.290Z,20.30
2017-08-19T12:20:07.878Z,20.38
2017-08-19T12:22:36.840Z,20.49
2017-08-19T12:25:04.312Z,20.66
2017-08-19T12:27:31.703Z,20.71
2017-08-19T12:30:02.501Z,20.75
2017-08-19T12:32:30.583Z,20.79
2017-08-19T12:34:57.974Z,20.92
2017-08-19T12:37:25.391Z,20.89
2017-08-19T12:39:52.786Z,20.84
2017-08-19T12:42:20.228Z,20.92
2017-08-19T12:44:47.595Z,21.02
2017-08-19T12:47:14.996Z,21.13
2017-08-19T12:49:42.861Z,21.21
2017-08-19T12:52:10.645Z,21.18
2017-08-19T12:57:28.383Z,21.03
2017-08-19T12:59:55.819Z,20.88
2017-08-19T13:02:23.391Z,20.85
2017-08-19T13:04:51.195Z,20.78
2017-08-19T13:07:18.638Z,20.83
2017-08-19T13:09:46.022Z,20.89
2017-08-19T13:12:13.435Z,20.93
2017-08-19T13:14:40.839Z,20.92
2017-08-19T13:17:08.224Z,20.94
2017-08-19T13:19:35.612Z,20.83
2017-08-19T13:22:03.007Z,20.68
2017-08-19T13:24:30.420Z,20.62
2017-08-19T13:26:58.019Z,20.52
2017-08-19T13:29:25.420Z,20.63
2017-08-19T13:31:52.810Z,20.42
2017-08-19T13:34:20.265Z,20.59
2017-08-19T13:36:47.655Z,20.53
2017-08-19T13:39:15.047Z,20.34
2017-08-19T13:41:42.435Z,20.26
2017-08-19T13:44:09.837Z,20.39
2017-08-19T13:46:37.226Z,20.58
2017-08-19T13:49:04.629Z,20.67
2017-08-19T13:51:32.011Z,20.68
2017-08-19T13:53:59.407Z,20.66
2017-08-19T13:56:26.799Z,20.79
2017-08-19T13:58:54.214Z,20.94
2017-08-19T14:01:21.635Z,20.90
2017-08-19T14:03:49.031Z,21.05
2017-08-19T14:06:16.429Z,21.14
2017-08-19T14:08:43.832Z,21.31
2017-08-19T14:11:11.240Z,21.18
2017-08-19T14:13:38.629Z,20.99
2017-08-19T14:16:06.028Z,20.92
2017-08-19T14:18:33.447Z,20.86
2017-08-19T14:21:00.838Z,20.87
2017-08-19T14:23:28.230Z,20.77
2017-08-19T14:25:55.628Z,20.70
2017-08-19T14:28:23.026Z,20.82
2017-08-19T14:30:50.535Z,20.79
2017-08-19T14:33:17.931Z,20.81
2017-08-19T14:35:45.319Z,20.91
2017-08-19T14:38:12.931Z,20.85
2017-08-19T14:40:40.327Z,20.83
2017-08-19T14:43:07.714Z,20.58
2017-08-19T14:45:35.115Z,20.58
2017-08-19T14:48:02.503Z,20.61
2017-08-19T14:50:29.910Z,20.79
2017-08-19T14:52:57.315Z,20.87
2017-08-19T14:55:24.726Z,20.92
2017-08-19T14:57:52.114Z,20.87
2017-08-19T15:00:19.511Z,20.93
2017-08-19T15:02:46.907Z,21.04
2017-08-19T15:05:14.316Z,21.08
2017-08-19T15:07:41.707Z,20.97
2017-08-19T15:10:09.101Z,21.04
2017-08-19T15:12:36.483Z,20.97
2017-08-19T15:15:03.871Z,21.06
2017-08-19T15:17:31.908Z,21.01
2017-08-19T15:19:59.303Z,21.06
2017-08-19T15:22:26.723Z,20.94
2017-08-19T15:24:54.112Z,21.03
2017-08-19T15:27:21.506Z,20.96
2017-08-19T15:29:48.908Z,21.04
2017-08-19T15:32:16.299Z,21.02
2017-08-19T15:34:43.703Z,21.08
2017-08-19T15:37:11.098Z,21.07
2017-08-19T15:39:38.507Z,21.09
2017-08-19T15:42:05.907Z,21.20
2017-08-19T15:44:33.308Z,21.23
2017-08-19T15:47:00.910Z,21.29
2017-08-19T15:49:28.303Z,21.32
2017-08-19T15:51:55.715Z,21.28
2017-08-19T15:54:23.103Z,21.29
2017-08-19T15:56:50.507Z,21.13
2017-08-19T15:59:17.938Z,21.03
2017-08-19T16:01:45.335Z,21.02
2017-08-19T16:04:12.741Z,21.02
2017-08-19T16:06:40.139Z,21.06
2017-08-19T16:09:08.067Z,21.05
2017-08-19T16:11:35.447Z,21.05
2017-08-19T16:14:02.888Z,21.10
2017-08-19T16:16:30.284Z,21.07
2017-08-19T16:18:57.675Z,21.18
2017-08-19T16:21:25.065Z,21.19
2017-08-19T16:23:52.464Z,21.09
2017-08-19T16:26:19.963Z,21.18
2017-08-19T16:28:47.352Z,21.21
2017-08-19T16:31:14.768Z,21.15
2017-08-19T16:33:42.186Z,21.14
2017-08-19T16:36:09.579Z,21.11
2017-08-19T16:38:36.975Z,21.08
2017-08-19T16:41:04.368Z,20.90
2017-08-19T16:43:31.763Z,20.94
2017-08-19T16:45:59.156Z,21.00
2017-08-19T16:48:26.554Z,20.99
2017-08-19T16:50:53.940Z,20.96
2017-08-19T16:53:21.318Z,20.93
2017-08-19T16:55:48.726Z,20.93
2017-08-19T16:58:16.104Z,20.91
2017-08-19T17:00:43.503Z,20.85
2017-08-19T17:03:10.899Z,20.95
2017-08-19T17:05:38.297Z,21.05
2017-08-19T17:08:05.690Z,21.09
2017-08-19T17:10:33.309Z,21.03
2017-08-19T17:13:00.692Z,20.92
2017-08-19T17:15:28.095Z,20.96
2017-08-19T17:17:55.476Z,20.94
2017-08-19T17:20:22.876Z,20.94
2017-08-19T17:22:50.267Z,20.91
2017-08-19T17:25:17.678Z,20.92
2017-08-19T17:27:45.067Z,20.97
2017-08-19T17:30:12.466Z,21.04
2017-08-19T17:32:39.856Z,21.14
2017-08-19T17:35:07.246Z,20.98
2017-08-19T17:37:34.852Z,19.92
2017-08-19T17:40:02.253Z,19.22
2017-08-19T17:42:29.652Z,18.54
2017-08-19T17:44:57.034Z,18.22
2017-08-19T17:47:24.431Z,18.08
2017-08-19T17:49:51.828Z,18.08
2017-08-19T17:52:19.219Z,18.31
2017-08-19T17:54:46.610Z,18.48
2017-08-19T17:57:14.007Z,18.40
2017-08-19T17:59:41.400Z,18.49
2017-08-19T18:02:08.802Z,18.40
2017-08-19T18:04:36.403Z,18.54
2017-08-19T18:07:04.508Z,18.70
2017-08-19T18:09:31.902Z,18.80
2017-08-19T18:11:59.306Z,19.00
2017-08-19T18:14:26.727Z,19.18
2017-08-19T18:16:54.117Z,19.33
2017-08-19T18:19:21.512Z,19.40
2017-08-19T18:21:48.996Z,19.49
2017-08-19T18:24:16.371Z,19.62
2017-08-19T18:26:43.772Z,19.72
2017-08-19T18:29:11.161Z,19.78
2017-08-19T18:31:38.555Z,19.85
2017-08-19T18:34:05.964Z,19.88
2017-08-19T18:36:33.376Z,19.87
2017-08-19T18:39:00.782Z,19.90
2017-08-19T18:41:28.199Z,19.86
2017-08-19T18:43:55.584Z,19.90
2017-08-19T18:46:22.982Z,19.77
2017-08-19T18:48:50.371Z,19.78
2017-08-19T18:51:17.769Z,19.59
2017-08-19T18:53:45.163Z,19.56
2017-08-19T18:56:12.564Z,19.70
2017-08-19T18:58:39.949Z,19.57
2017-08-19T19:01:07.350Z,19.50
2017-08-19T19:03:34.746Z,19.50
2017-08-19T19:06:02.137Z,19.53
2017-08-19T19:08:29.536Z,19.46
2017-08-19T19:10:56.924Z,19.53
2017-08-19T19:13:24.327Z,19.39
2017-08-19T19:15:51.717Z,19.51
2017-08-19T19:18:19.115Z,19.51
2017-08-19T19:20:46.716Z,19.43
2017-08-19T19:23:14.111Z,19.29
2017-08-19T19:25:41.495Z,19.30
2017-08-19T19:28:08.887Z,19.24
2017-08-19T19:30:36.282Z,19.14
2017-08-19T19:33:03.679Z,18.96
2017-08-19T19:35:31.070Z,18.92
2017-08-19T19:37:58.468Z,18.85
2017-08-19T19:40:25.855Z,18.76
2017-08-19T19:42:53.268Z,18.99
2017-08-19T19:45:20.871Z,18.99
2017-08-19T19:47:48.281Z,18.94
2017-08-19T19:50:15.671Z,19.01
2017-08-19T19:52:43.060Z,18.93
2017-08-19T19:55:10.455Z,18.89
2017-08-19T19:57:37.835Z,18.88
2017-08-19T20:00:05.247Z,18.95
2017-08-19T20:02:32.847Z,18.89
2017-08-19T20:05:00.239Z,18.88
2017-08-19T20:07:27.628Z,19.01
2017-08-19T20:09:55.031Z,19.04
2017-08-19T20:12:22.433Z,19.06
2017-08-19T20:14:49.825Z,19.04
2017-08-19T20:17:17.207Z,19.00
2017-08-19T20:19:44.606Z,18.97
2017-08-19T20:22:11.991Z,19.01
2017-08-19T20:24:39.396Z,19.08
2017-08-19T20:27:06.825Z,19.04
2017-08-19T20:29:34.419Z,19.05
2017-08-19T20:32:02.026Z,19.01
2017-08-19T20:34:29.422Z,18.94
2017-08-19T20:36:56.822Z,18.89
2017-08-19T20:39:24.215Z,18.79
2017-08-19T20:41:51.609Z,18.61
2017-08-19T20:44:18.995Z,18.62
2017-08-19T20:46:46.379Z,18.68
2017-08-19T20:49:13.780Z,18.64
2017-08-19T20:54:16.148Z,18.87
2017-08-19T20:56:43.556Z,18.83
2017-08-19T20:59:10.943Z,18.84
2017-08-19T21:01:38.334Z,18.77
2017-08-19T21:04:05.744Z,18.79
2017-08-19T21:06:33.204Z,18.91
2017-08-19T21:09:00.607Z,18.87
2017-08-19T21:11:27.995Z,18.87
2017-08-19T21:13:55.433Z,18.78
2017-08-19T21:16:22.825Z,18.79
2017-08-19T21:18:50.284Z,18.59
2017-08-19T21:21:17.655Z,18.64
2017-08-19T21:23:45.048Z,18.60
2017-08-19T21:26:12.447Z,18.62
2017-08-19T21:28:39.855Z,18.61
2017-08-19T21:31:07.231Z,18.49
2017-08-19T21:33:34.615Z,18.43
2017-08-19T21:36:02.231Z,18.49
2017-08-19T21:38:29.625Z,18.52
2017-08-19T21:40:57.027Z,18.40
2017-08-19T21:43:24.424Z,18.38
2017-08-19T21:45:51.839Z,18.45
2017-08-19T21:48:19.232Z,18.57
2017-08-19T21:50:46.611Z,18.48
2017-08-19T21:53:14.009Z,18.36
2017-08-19T21:55:41.407Z,18.44
2017-08-19T21:58:08.799Z,18.41
2017-08-19T22:00:36.188Z,18.36
2017-08-19T22:03:03.579Z,18.27
2017-08-19T22:05:31.039Z,18.31
2017-08-19T22:07:58.430Z,18.26
2017-08-19T22:10:25.822Z,18.32
2017-08-19T22:12:53.215Z,18.27
2017-08-19T22:15:20.599Z,18.35
2017-08-19T22:17:47.994Z,18.32
2017-08-19T22:20:15.473Z,18.27
2017-08-19T22:22:42.843Z,18.25
2017-08-19T22:25:10.231Z,18.33
2017-08-19T22:27:37.647Z,18.37
2017-08-19T22:30:05.106Z,18.32
2017-08-19T22:32:32.484Z,18.42
2017-08-19T22:34:59.887Z,18.26
2017-08-19T22:37:27.270Z,18.32
2017-08-19T22:39:54.666Z,18.21
2017-08-19T22:42:22.062Z,18.28
2017-08-19T22:44:49.454Z,18.24
2017-08-19T22:47:17.047Z,18.26
2017-08-19T22:49:44.544Z,18.23
2017-08-19T22:52:11.923Z,18.13
2017-08-19T22:54:39.310Z,18.14
2017-08-19T22:57:06.699Z,18.12
2017-08-19T22:59:34.306Z,18.06
2017-08-19T23:02:01.712Z,18.15
2017-08-19T23:04:29.107Z,18.08
2017-08-19T23:06:56.496Z,18.08
2017-08-19T23:09:23.896Z,18.16
2017-08-19T23:11:51.284Z,18.19
2017-08-19T23:14:18.670Z,18.22
2017-08-19T23:16:46.059Z,18.10
2017-08-19T23:19:13.450Z,18.14
2017-08-19T23:21:40.855Z,18.12
2017-08-19T23:24:08.255Z,18.16
2017-08-19T23:26:35.656Z,18.10
2017-08-19T23:29:03.063Z,18.11
2017-08-19T23:31:30.471Z,18.10
2017-08-19T23:33:58.763Z,18.13
2017-08-19T23:36:26.159Z,18.01
2017-08-19T23:38:53.554Z,18.08
2017-08-19T23:41:20.951Z,17.99
2017-08-19T23:43:48.327Z,17.94
2017-08-19T23:46:15.723Z,17.86
2017-08-19T23:48:43.335Z,17.97
2017-08-19T23:51:10.740Z,17.98
2017-08-19T23:53:38.135Z,17.99
2017-08-19T23:56:05.532Z,17.95
2017-08-19T23:58:32.927Z,17.99
